createdAt,value
2019-03-25T00:00:57.703Z,70.84
2019-03-25T00:01:57.691Z,71.26
2019-03-25T00:02:57.678Z,71.26
2019-03-25T00:03:57.688Z,70.98
2019-03-25T00:04:57.660Z,71.19
2019-03-25T00:05:57.677Z,72.12
2019-03-25T00:06:57.656Z,71.81
2019-03-25T00:07:57.618Z,72.12
2019-03-25T00:09:04.938Z,72.33
2019-03-25T00:09:58.613Z,72.12
2019-03-25T00:10:57.679Z,72.02
2019-03-25T00:11:57.575Z,72.15
2019-03-25T00:12:57.580Z,72.56
2019-03-25T00:13:57.550Z,72.67
2019-03-25T00:14:57.556Z,72.56
2019-03-25T00:15:57.527Z,72.88
2019-03-25T00:16:57.523Z,72.74
2019-03-25T00:17:57.505Z,73.50
2019-03-25T00:18:57.506Z,73.19
2019-03-25T00:19:57.497Z,73.50
2019-03-25T00:20:57.478Z,73.50
2019-03-25T00:21:57.458Z,73.19
2019-03-25T00:22:57.445Z,73.57
2019-03-25T00:23:57.434Z,73.39
2019-03-25T00:24:57.450Z,73.15
2019-03-25T00:25:57.424Z,73.19
2019-03-25T00:26:57.404Z,73.36
2019-03-25T00:27:57.390Z,73.36
2019-03-25T00:28:57.380Z,73.15
2019-03-25T00:29:57.364Z,72.94
2019-03-25T00:30:57.372Z,72.85
2019-03-25T00:31:57.346Z,72.81
2019-03-25T00:32:57.380Z,73.02
2019-03-25T00:33:57.322Z,72.85
2019-03-25T00:34:57.309Z,72.81
2019-03-25T00:35:57.318Z,73.33
2019-03-25T00:36:57.287Z,72.71
2019-03-25T00:37:57.272Z,72.60
2019-03-25T00:38:57.261Z,72.39
2019-03-25T00:39:57.250Z,72.50
2019-03-25T00:40:57.261Z,72.29
2019-03-25T00:41:57.228Z,72.50
2019-03-25T00:42:57.216Z,72.47
2019-03-25T00:43:57.214Z,72.39
2019-03-25T00:44:57.193Z,72.50
2019-03-25T00:45:57.182Z,72.47
2019-03-25T00:46:57.189Z,72.57
2019-03-25T00:47:57.161Z,72.57
2019-03-25T00:48:57.150Z,72.57
2019-03-25T00:49:57.135Z,72.57
2019-03-25T00:50:57.125Z,72.57
2019-03-25T00:51:57.131Z,72.88
2019-03-25T00:52:57.102Z,73.08
2019-03-25T00:53:57.103Z,72.98
2019-03-25T00:54:57.079Z,72.98
2019-03-25T00:55:57.068Z,72.47
2019-03-25T00:56:57.081Z,72.47
2019-03-25T00:57:57.045Z,72.67
2019-03-25T00:58:57.034Z,73.19
2019-03-25T00:59:57.032Z,72.57
2019-03-25T01:00:57.039Z,72.57
2019-03-25T01:01:57.018Z,72.57
2019-03-25T01:02:56.987Z,72.78
2019-03-25T01:03:56.976Z,73.19
2019-03-25T01:04:56.965Z,72.78
2019-03-25T01:05:56.956Z,73.08
2019-03-25T01:06:56.957Z,73.39
2019-03-25T01:07:56.927Z,73.08
2019-03-25T01:08:56.917Z,73.08
2019-03-25T01:09:56.907Z,73.08
2019-03-25T01:10:56.894Z,73.39
2019-03-25T01:11:56.905Z,73.29
2019-03-25T01:12:56.871Z,73.08
2019-03-25T01:13:56.867Z,73.29
2019-03-25T01:14:56.848Z,73.19
2019-03-25T01:15:56.869Z,71.43
2019-03-25T01:16:56.854Z,71.74
2019-03-25T01:17:56.829Z,71.95
2019-03-25T01:18:56.799Z,72.57
2019-03-25T01:19:56.795Z,71.12
2019-03-25T01:20:56.781Z,71.02
2019-03-25T01:21:56.765Z,71.22
2019-03-25T01:22:56.783Z,71.33
2019-03-25T01:23:56.741Z,71.22
2019-03-25T01:25:01.824Z,71.12
2019-03-25T01:25:57.716Z,71.12
2019-03-25T01:26:56.706Z,70.71
2019-03-25T01:27:56.714Z,70.40
2019-03-25T01:28:56.684Z,71.02
2019-03-25T01:29:56.675Z,70.64
2019-03-25T01:30:56.660Z,70.71
2019-03-25T01:31:56.651Z,70.61
2019-03-25T01:32:56.662Z,70.71
2019-03-25T01:33:56.627Z,70.40
2019-03-25T01:34:56.616Z,70.50
2019-03-25T01:35:56.602Z,70.92
2019-03-25T01:36:56.592Z,69.67
2019-03-25T01:37:56.580Z,69.67
2019-03-25T01:38:56.590Z,69.74
2019-03-25T01:39:56.558Z,69.98
2019-03-25T01:40:56.544Z,70.09
2019-03-25T01:41:56.535Z,69.85
2019-03-25T01:42:56.522Z,70.09
2019-03-25T01:43:56.558Z,70.37
2019-03-25T01:44:56.503Z,69.74
2019-03-25T01:45:56.487Z,69.74
2019-03-25T01:46:56.477Z,69.74
2019-03-25T01:47:56.467Z,69.85
2019-03-25T01:48:56.453Z,69.74
2019-03-25T01:49:56.461Z,69.51
2019-03-25T01:50:56.429Z,69.02
2019-03-25T01:51:56.419Z,69.30
2019-03-25T01:52:56.404Z,69.30
2019-03-25T01:53:56.395Z,68.88
2019-03-25T01:54:56.402Z,69.20
2019-03-25T01:55:56.374Z,69.30
2019-03-25T01:56:56.362Z,69.40
2019-03-25T01:57:56.347Z,69.40
2019-03-25T01:58:56.335Z,68.99
2019-03-25T01:59:56.342Z,69.48
2019-03-25T02:00:56.312Z,69.09
2019-03-25T02:01:56.302Z,68.88
2019-03-25T02:02:56.292Z,68.78
2019-03-25T02:03:56.278Z,68.78
2019-03-25T02:04:56.292Z,68.85
2019-03-25T02:05:56.256Z,68.75
2019-03-25T02:06:56.244Z,68.44
2019-03-25T02:07:56.236Z,69.27
2019-03-25T02:08:56.220Z,69.17
2019-03-25T02:09:56.208Z,69.27
2019-03-25T02:10:56.216Z,69.68
2019-03-25T02:11:56.187Z,69.17
2019-03-25T02:12:56.178Z,69.71
2019-03-25T02:13:56.162Z,70.51
2019-03-25T02:14:56.151Z,70.09
2019-03-25T02:15:56.161Z,70.30
2019-03-25T02:16:56.130Z,70.57
2019-03-25T02:17:56.116Z,70.72
2019-03-25T02:18:56.106Z,70.61
2019-03-25T02:19:56.095Z,70.57
2019-03-25T02:20:56.082Z,70.40
2019-03-25T02:21:56.089Z,70.72
2019-03-25T02:22:56.219Z,70.47
2019-03-25T02:23:56.050Z,70.40
2019-03-25T02:24:56.036Z,70.72
2019-03-25T02:25:56.025Z,70.61
2019-03-25T02:26:56.032Z,70.61
2019-03-25T02:27:56.003Z,70.92
2019-03-25T02:28:55.991Z,71.12
2019-03-25T02:29:55.977Z,70.89
2019-03-25T02:30:55.967Z,71.23
2019-03-25T02:31:55.978Z,72.06
2019-03-25T02:32:55.943Z,71.85
2019-03-25T02:33:55.933Z,72.26
2019-03-25T02:34:55.920Z,72.16
2019-03-25T02:35:55.910Z,72.36
2019-03-25T02:36:55.937Z,72.57
2019-03-25T02:37:55.889Z,72.36
2019-03-25T02:38:55.881Z,72.36
2019-03-25T02:39:55.898Z,72.78
2019-03-25T02:40:55.854Z,72.88
2019-03-25T02:41:55.850Z,72.78
2019-03-25T02:43:02.886Z,72.36
2019-03-25T02:43:55.820Z,72.88
2019-03-25T02:44:55.806Z,72.88
2019-03-25T02:45:55.799Z,72.57
2019-03-25T02:46:55.794Z,72.67
2019-03-25T02:47:55.789Z,72.47
2019-03-25T02:48:55.760Z,73.22
2019-03-25T02:49:55.749Z,73.19
2019-03-25T02:50:55.739Z,72.88
2019-03-25T02:51:55.727Z,73.09
2019-03-25T02:52:55.738Z,73.29
2019-03-25T02:53:55.710Z,73.09
2019-03-25T02:54:55.689Z,72.88
2019-03-25T02:55:55.682Z,73.02
2019-03-25T02:56:55.665Z,73.09
2019-03-25T02:57:55.657Z,73.19
2019-03-25T02:58:55.661Z,73.12
2019-03-25T02:59:55.630Z,73.39
2019-03-25T03:00:55.624Z,73.19
2019-03-25T03:01:55.630Z,73.54
2019-03-25T03:02:55.610Z,73.64
2019-03-25T03:03:55.604Z,73.85
2019-03-25T03:04:55.575Z,73.43
2019-03-25T03:05:55.562Z,74.57
2019-03-25T03:06:55.556Z,73.64
2019-03-25T03:07:55.543Z,74.36
2019-03-25T03:08:55.550Z,74.46
2019-03-25T03:09:55.524Z,73.50
2019-03-25T03:10:55.524Z,74.02
2019-03-25T03:11:55.492Z,74.05
2019-03-25T03:12:55.486Z,74.15
2019-03-25T03:13:55.474Z,74.36
2019-03-25T03:14:55.482Z,74.36
2019-03-25T03:15:55.448Z,74.26
2019-03-25T03:16:55.438Z,74.15
2019-03-25T03:17:55.430Z,74.36
2019-03-25T03:18:55.413Z,74.77
2019-03-25T03:19:55.568Z,74.77
2019-03-25T03:20:55.430Z,75.12
2019-03-25T03:21:55.386Z,74.77
2019-03-25T03:22:55.413Z,74.88
2019-03-25T03:23:55.367Z,74.81
2019-03-25T03:24:55.366Z,74.91
2019-03-25T03:25:57.619Z,75.39
2019-03-25T03:26:55.325Z,74.88
2019-03-25T03:27:55.312Z,74.88
2019-03-25T03:28:55.297Z,74.57
2019-03-25T03:29:55.296Z,74.77
2019-03-25T03:30:55.296Z,74.98
2019-03-25T03:31:55.296Z,74.77
2019-03-25T03:32:55.278Z,74.98
2019-03-25T03:33:55.241Z,74.36
2019-03-25T03:34:55.244Z,74.57
2019-03-25T03:35:55.235Z,74.98
2019-03-25T03:36:55.205Z,74.88
2019-03-25T03:37:55.198Z,74.88
2019-03-25T03:38:55.184Z,74.74
2019-03-25T03:39:55.174Z,75.05
2019-03-25T03:40:55.194Z,74.98
2019-03-25T03:41:55.150Z,74.53
2019-03-25T03:42:55.143Z,75.19
2019-03-25T03:43:55.123Z,75.39
2019-03-25T03:44:55.116Z,75.36
2019-03-25T03:45:55.126Z,74.95
2019-03-25T03:46:55.097Z,75.26
2019-03-25T03:47:55.083Z,74.95
2019-03-25T03:48:55.087Z,75.05
2019-03-25T03:49:55.066Z,74.74
2019-03-25T03:50:55.045Z,75.36
2019-03-25T03:51:55.063Z,74.53
2019-03-25T03:52:55.039Z,75.26
2019-03-25T03:53:55.011Z,75.26
2019-03-25T03:54:55.004Z,75.15
2019-03-25T03:55:54.993Z,75.77
2019-03-25T03:56:54.993Z,76.29
2019-03-25T03:57:54.964Z,75.77
2019-03-25T03:58:54.955Z,76.39
2019-03-25T03:59:54.943Z,76.56
2019-03-25T04:00:54.930Z,76.46
2019-03-25T04:01:54.941Z,76.67
2019-03-25T04:02:54.913Z,77.11
2019-03-25T04:03:54.897Z,77.94
2019-03-25T04:04:54.883Z,78.25
2019-03-25T04:05:54.873Z,78.21
2019-03-25T04:06:54.862Z,78.14
2019-03-25T04:07:54.866Z,78.14
2019-03-25T04:08:54.838Z,79.14
2019-03-25T04:09:54.829Z,81.45
2019-03-25T04:10:54.830Z,82.79
2019-03-25T04:11:54.805Z,85.00
2019-03-25T04:12:54.818Z,86.96
2019-03-25T04:13:54.781Z,87.17
2019-03-25T04:14:54.774Z,87.62
2019-03-25T04:15:54.758Z,87.76
2019-03-25T04:16:54.751Z,88.49
2019-03-25T04:17:54.751Z,89.11
2019-03-25T04:18:54.726Z,89.83
2019-03-25T04:19:54.708Z,88.39
2019-03-25T04:20:54.698Z,89.94
2019-03-25T04:21:54.688Z,89.11
2019-03-25T04:22:54.696Z,90.60
2019-03-25T04:23:54.666Z,89.42
2019-03-25T04:24:54.654Z,89.42
2019-03-25T04:25:54.640Z,89.52
2019-03-25T04:26:54.638Z,89.62
2019-03-25T04:27:54.660Z,89.56
2019-03-25T04:28:54.606Z,89.42
2019-03-25T04:29:54.597Z,89.46
2019-03-25T04:30:54.591Z,89.83
2019-03-25T04:31:54.573Z,90.08
2019-03-25T04:32:54.559Z,90.08
2019-03-25T04:33:54.569Z,89.67
2019-03-25T04:34:54.537Z,89.67
2019-03-25T04:35:54.527Z,89.94
2019-03-25T04:36:54.517Z,90.29
2019-03-25T04:37:56.489Z,89.67
2019-03-25T04:38:54.509Z,89.62
2019-03-25T04:39:54.479Z,89.83
2019-03-25T04:40:54.468Z,89.62
2019-03-25T04:41:54.459Z,89.42
2019-03-25T04:42:54.445Z,89.42
2019-03-25T04:43:54.696Z,89.83
2019-03-25T04:44:54.421Z,90.52
2019-03-25T04:45:54.411Z,90.35
2019-03-25T04:46:54.401Z,90.56
2019-03-25T04:47:54.391Z,90.56
2019-03-25T04:48:54.375Z,91.17
2019-03-25T04:49:54.382Z,91.90
2019-03-25T04:50:54.352Z,91.28
2019-03-25T04:51:54.346Z,90.70
2019-03-25T04:52:54.331Z,91.53
2019-03-25T04:53:54.316Z,91.99
2019-03-25T04:54:54.323Z,92.46
2019-03-25T04:55:54.294Z,92.30
2019-03-25T04:56:54.283Z,92.61
2019-03-25T04:57:54.273Z,91.93
2019-03-25T04:58:54.264Z,92.03
2019-03-25T04:59:54.272Z,91.61
2019-03-25T05:00:54.239Z,91.61
2019-03-25T05:01:54.225Z,91.72
2019-03-25T05:02:54.217Z,92.03
2019-03-25T05:03:54.233Z,92.24
2019-03-25T05:04:54.189Z,92.03
2019-03-25T05:05:54.198Z,92.55
2019-03-25T05:06:54.179Z,92.85
2019-03-25T05:07:54.154Z,92.65
2019-03-25T05:08:54.144Z,92.76
2019-03-25T05:09:54.135Z,93.62
2019-03-25T05:10:54.140Z,93.21
2019-03-25T05:11:54.111Z,93.37
2019-03-25T05:12:54.096Z,93.10
2019-03-25T05:13:54.084Z,93.48
2019-03-25T05:14:54.075Z,93.41
2019-03-25T05:15:54.082Z,93.52
2019-03-25T05:16:54.054Z,93.62
2019-03-25T05:17:54.039Z,93.62
2019-03-25T05:18:54.030Z,94.76
2019-03-25T05:19:54.015Z,93.93
2019-03-25T05:20:54.030Z,93.83
2019-03-25T05:21:53.995Z,93.83
2019-03-25T05:22:53.982Z,93.83
2019-03-25T05:23:53.973Z,93.62
2019-03-25T05:24:53.963Z,94.24
2019-03-25T05:25:53.949Z,94.24
2019-03-25T05:26:53.956Z,94.24
2019-03-25T05:27:53.926Z,94.76
2019-03-25T05:28:53.912Z,94.66
2019-03-25T05:29:53.900Z,95.39
2019-03-25T05:30:53.888Z,95.44
2019-03-25T05:31:53.894Z,95.54
2019-03-25T05:32:53.864Z,95.28
2019-03-25T05:33:53.853Z,95.14
2019-03-25T05:34:53.842Z,95.54
2019-03-25T05:35:53.836Z,95.24
2019-03-25T05:36:53.858Z,94.93
2019-03-25T05:37:53.807Z,95.14
2019-03-25T05:38:53.800Z,95.14
2019-03-25T05:39:53.784Z,95.24
2019-03-25T05:40:53.771Z,95.18
2019-03-25T05:41:53.762Z,94.31
2019-03-25T05:42:53.767Z,94.20
2019-03-25T05:43:53.741Z,93.99
2019-03-25T05:44:53.726Z,94.20
2019-03-25T05:45:53.716Z,94.20
2019-03-25T05:46:53.708Z,94.66
2019-03-25T05:47:53.711Z,94.31
2019-03-25T05:48:53.679Z,94.41
2019-03-25T05:49:53.669Z,94.20
2019-03-25T05:50:53.657Z,94.35
2019-03-25T05:51:53.647Z,93.83
2019-03-25T05:52:53.656Z,93.83
2019-03-25T05:53:53.622Z,93.27
2019-03-25T05:54:53.624Z,93.52
2019-03-25T05:55:53.606Z,93.68
2019-03-25T05:57:02.018Z,93.27
2019-03-25T05:57:54.594Z,93.06
2019-03-25T05:58:53.564Z,93.41
2019-03-25T05:59:53.553Z,93.31
2019-03-25T06:00:53.541Z,93.62
2019-03-25T06:01:53.531Z,93.58
2019-03-25T06:02:53.538Z,93.62
2019-03-25T06:03:53.507Z,93.73
2019-03-25T06:04:53.495Z,93.37
2019-03-25T06:05:53.485Z,93.21
2019-03-25T06:06:53.472Z,92.85
2019-03-25T06:07:53.502Z,93.16
2019-03-25T06:08:53.451Z,93.06
2019-03-25T06:09:53.439Z,93.31
2019-03-25T06:10:53.434Z,93.89
2019-03-25T06:11:53.417Z,93.37
2019-03-25T06:12:53.402Z,93.58
2019-03-25T06:13:53.410Z,93.68
2019-03-25T06:14:53.380Z,93.58
2019-03-25T06:15:53.367Z,93.06
2019-03-25T06:16:53.356Z,93.37
2019-03-25T06:17:53.397Z,93.68
2019-03-25T06:18:53.358Z,93.58
2019-03-25T06:19:53.327Z,94.47
2019-03-25T06:20:53.312Z,94.68
2019-03-25T06:21:53.298Z,94.47
2019-03-25T06:22:53.286Z,94.37
2019-03-25T06:23:53.275Z,94.37
2019-03-25T06:24:53.281Z,92.03
2019-03-25T06:25:53.252Z,90.41
2019-03-25T06:26:53.282Z,90.35
2019-03-25T06:27:53.232Z,90.77
2019-03-25T06:28:53.218Z,91.08
2019-03-25T06:29:53.229Z,91.49
2019-03-25T06:30:53.203Z,92.05
2019-03-25T06:31:53.183Z,91.89
2019-03-25T06:32:53.177Z,91.43
2019-03-25T06:33:53.159Z,90.91
2019-03-25T06:34:53.167Z,90.85
2019-03-25T06:35:53.138Z,90.54
2019-03-25T06:36:53.124Z,90.64
2019-03-25T06:37:53.113Z,90.54
2019-03-25T06:38:53.105Z,91.02
2019-03-25T06:39:53.114Z,91.47
2019-03-25T06:40:53.089Z,91.89
2019-03-25T06:41:53.078Z,91.99
2019-03-25T06:42:53.057Z,92.41
2019-03-25T06:43:53.048Z,92.93
2019-03-25T06:44:53.034Z,93.02
2019-03-25T06:45:53.040Z,92.78
2019-03-25T06:46:53.011Z,93.52
2019-03-25T06:47:52.998Z,92.32
2019-03-25T06:48:52.991Z,87.02
2019-03-25T06:49:52.980Z,84.88
2019-03-25T06:50:52.982Z,82.40
2019-03-25T06:51:52.951Z,81.74
2019-03-25T06:52:52.942Z,80.30
2019-03-25T06:53:52.934Z,81.46
2019-03-25T06:54:52.961Z,78.96
2019-03-25T06:55:52.946Z,80.43
2019-03-25T06:56:52.908Z,80.63
2019-03-25T06:57:52.885Z,81.09
2019-03-25T06:58:52.874Z,82.35
2019-03-25T06:59:52.865Z,82.43
2019-03-25T07:00:52.850Z,82.95
2019-03-25T07:01:52.856Z,84.01
2019-03-25T07:02:52.828Z,84.20
2019-03-25T07:03:52.820Z,84.81
2019-03-25T07:04:52.801Z,85.64
2019-03-25T07:05:52.790Z,85.64
2019-03-25T07:06:52.797Z,85.99
2019-03-25T07:07:52.776Z,85.58
2019-03-25T07:08:52.757Z,85.99
2019-03-25T07:09:52.746Z,86.13
2019-03-25T07:10:52.734Z,86.44
2019-03-25T07:11:52.744Z,86.34
2019-03-25T07:12:52.712Z,86.03
2019-03-25T07:13:52.701Z,86.76
2019-03-25T07:14:52.697Z,87.99
2019-03-25T07:15:52.679Z,86.30
2019-03-25T07:16:52.722Z,85.83
2019-03-25T07:17:52.655Z,86.20
2019-03-25T07:18:52.645Z,86.82
2019-03-25T07:19:52.634Z,86.30
2019-03-25T07:20:52.623Z,85.27
2019-03-25T07:21:52.635Z,85.17
2019-03-25T07:22:52.600Z,86.20
2019-03-25T07:23:52.588Z,87.54
2019-03-25T07:24:52.578Z,85.78
2019-03-25T07:25:52.568Z,86.30
2019-03-25T07:26:52.559Z,86.61
2019-03-25T07:27:52.564Z,85.93
2019-03-25T07:28:52.534Z,85.93
2019-03-25T07:29:52.521Z,85.52
2019-03-25T07:30:52.510Z,85.52
2019-03-25T07:31:52.498Z,84.28
2019-03-25T07:32:52.506Z,85.41
2019-03-25T07:33:52.479Z,85.31
2019-03-25T07:34:52.464Z,84.38
2019-03-25T07:35:52.459Z,84.79
2019-03-25T07:36:52.441Z,84.17
2019-03-25T07:37:52.474Z,84.55
2019-03-25T07:38:52.419Z,84.07
2019-03-25T07:39:52.407Z,84.34
2019-03-25T07:40:52.398Z,83.62
2019-03-25T07:41:52.392Z,83.83
2019-03-25T07:42:52.378Z,83.48
2019-03-25T07:43:52.380Z,81.93
2019-03-25T07:44:52.354Z,81.31
2019-03-25T07:45:52.342Z,82.20
2019-03-25T07:46:52.331Z,81.48
2019-03-25T07:47:52.320Z,82.20
2019-03-25T07:48:52.336Z,81.17
2019-03-25T07:49:52.298Z,80.47
2019-03-25T07:50:52.287Z,79.37
2019-03-25T07:51:52.276Z,79.54
2019-03-25T07:52:52.266Z,78.41
2019-03-25T07:53:52.272Z,78.10
2019-03-25T07:54:52.245Z,76.25
2019-03-25T07:55:52.236Z,76.49
2019-03-25T07:56:52.215Z,77.21
2019-03-25T07:57:52.211Z,77.62
2019-03-25T07:58:52.219Z,77.86
2019-03-25T07:59:52.185Z,79.10
2019-03-25T08:00:52.170Z,77.86
2019-03-25T08:01:52.156Z,77.28
2019-03-25T08:02:52.155Z,78.00
2019-03-25T08:03:52.168Z,78.21
2019-03-25T08:04:52.125Z,78.04
2019-03-25T08:05:52.110Z,78.66
2019-03-25T08:06:52.106Z,78.45
2019-03-25T08:07:52.116Z,78.45
2019-03-25T08:09:03.126Z,78.04
2019-03-25T08:09:53.081Z,78.76
2019-03-25T08:10:52.053Z,78.24
2019-03-25T08:11:52.048Z,78.04
2019-03-25T08:12:52.056Z,78.34
2019-03-25T08:13:52.015Z,78.55
2019-03-25T08:14:52.039Z,77.76
2019-03-25T08:15:52.023Z,78.28
2019-03-25T08:16:51.981Z,78.59
2019-03-25T08:17:51.968Z,77.56
2019-03-25T08:18:51.956Z,78.49
2019-03-25T08:19:51.966Z,77.94
2019-03-25T08:20:51.941Z,78.49
2019-03-25T08:21:51.923Z,77.73
2019-03-25T08:22:51.909Z,78.14
2019-03-25T08:23:51.937Z,77.94
2019-03-25T08:24:51.887Z,78.24
2019-03-25T08:25:51.891Z,78.97
2019-03-25T08:26:51.865Z,79.48
2019-03-25T08:27:59.817Z,78.45
2019-03-25T08:28:52.836Z,78.45
2019-03-25T08:29:51.827Z,79.17
2019-03-25T08:30:51.833Z,78.24
2019-03-25T08:31:51.805Z,80.62
2019-03-25T08:32:51.793Z,79.69
2019-03-25T08:33:51.781Z,80.20
2019-03-25T08:34:51.769Z,80.34
2019-03-25T08:35:51.774Z,79.41
2019-03-25T08:36:51.746Z,79.41
2019-03-25T08:37:51.736Z,80.65
2019-03-25T08:38:51.728Z,82.24
2019-03-25T08:39:51.709Z,81.17
2019-03-25T08:40:51.745Z,82.45
2019-03-25T08:41:51.690Z,82.86
2019-03-25T08:42:53.692Z,82.34
2019-03-25T08:43:59.932Z,83.51
2019-03-25T08:44:51.650Z,83.31
2019-03-25T08:45:51.644Z,84.79
2019-03-25T08:46:51.649Z,86.34
2019-03-25T08:47:51.622Z,86.55
2019-03-25T08:48:51.607Z,87.62
2019-03-25T08:49:51.597Z,88.55
2019-03-25T08:50:51.584Z,88.28
2019-03-25T08:51:51.597Z,88.80
2019-03-25T08:52:51.562Z,89.52
2019-03-25T08:53:51.552Z,88.64
2019-03-25T08:54:51.552Z,89.25
2019-03-25T08:55:51.534Z,90.08
2019-03-25T08:56:51.558Z,90.70
2019-03-25T08:57:51.507Z,90.53
2019-03-25T08:58:51.493Z,90.84
2019-03-25T08:59:51.483Z,91.84
2019-03-25T09:00:51.472Z,90.87
2019-03-25T09:01:51.458Z,90.93
2019-03-25T09:02:51.468Z,89.77
2019-03-25T09:03:51.437Z,87.48
2019-03-25T09:04:51.427Z,85.89
2019-03-25T09:05:51.413Z,85.42
2019-03-25T09:06:51.406Z,85.97
2019-03-25T09:07:51.418Z,85.46
2019-03-25T09:08:51.380Z,86.87
2019-03-25T09:09:51.370Z,86.15
2019-03-25T09:10:51.355Z,85.38
2019-03-25T09:11:51.773Z,84.14
2019-03-25T09:12:51.359Z,84.00
2019-03-25T09:13:51.321Z,84.21
2019-03-25T09:14:51.308Z,84.31
2019-03-25T09:15:51.295Z,84.00
2019-03-25T09:16:51.283Z,82.84
2019-03-25T09:17:51.319Z,84.39
2019-03-25T09:18:51.286Z,84.26
2019-03-25T09:19:51.250Z,77.94
2019-03-25T09:20:51.237Z,72.62
2019-03-25T09:21:51.230Z,71.26
2019-03-25T09:22:51.215Z,68.91
2019-03-25T09:23:51.220Z,67.51
2019-03-25T09:24:51.192Z,67.03
2019-03-25T09:25:51.180Z,68.91
2019-03-25T09:26:51.169Z,66.91
2019-03-25T09:27:51.157Z,64.35
2019-03-25T09:28:51.167Z,62.65
2019-03-25T09:29:51.136Z,60.63
2019-03-25T09:30:51.121Z,64.70
2019-03-25T09:31:51.112Z,69.11
2019-03-25T09:32:51.098Z,72.34
2019-03-25T09:33:51.134Z,75.04
2019-03-25T09:34:51.078Z,75.42
2019-03-25T09:35:51.178Z,77.48
2019-03-25T09:36:51.052Z,78.23
2019-03-25T09:37:52.780Z,80.22
2019-03-25T09:38:51.031Z,81.76
2019-03-25T09:39:51.041Z,81.19
2019-03-25T09:40:51.012Z,82.11
2019-03-25T09:41:50.995Z,82.45
2019-03-25T09:42:50.981Z,77.19
2019-03-25T09:43:50.973Z,71.50
2019-03-25T09:44:50.989Z,70.88
2019-03-25T09:45:50.949Z,70.34
2019-03-25T09:46:50.936Z,70.61
2019-03-25T09:47:50.927Z,72.11
2019-03-25T09:48:50.913Z,73.10
2019-03-25T09:49:50.927Z,73.88
2019-03-25T09:50:50.889Z,76.55
2019-03-25T09:51:52.865Z,75.42
2019-03-25T09:52:50.935Z,76.24
2019-03-25T09:53:50.894Z,74.67
2019-03-25T09:54:50.848Z,77.06
2019-03-25T09:55:50.849Z,77.72
2019-03-25T09:56:50.820Z,78.17
2019-03-25T09:57:50.809Z,78.89
2019-03-25T09:58:50.799Z,79.44
2019-03-25T09:59:50.784Z,79.30
2019-03-25T10:00:52.179Z,77.75
2019-03-25T10:01:50.762Z,78.58
2019-03-25T10:02:50.751Z,78.33
2019-03-25T10:03:50.739Z,78.47
2019-03-25T10:04:50.729Z,79.19
2019-03-25T10:05:50.737Z,79.13
2019-03-25T10:06:50.706Z,78.41
2019-03-25T10:07:50.695Z,80.16
2019-03-25T10:08:50.682Z,80.95
2019-03-25T10:09:50.671Z,83.87
2019-03-25T10:10:50.687Z,85.05
2019-03-25T10:11:50.649Z,85.09
2019-03-25T10:12:50.638Z,87.05
2019-03-25T10:13:50.623Z,87.56
2019-03-25T10:14:50.615Z,88.39
2019-03-25T10:15:50.599Z,88.29
2019-03-25T10:16:50.607Z,88.49
2019-03-25T10:17:50.577Z,87.46
2019-03-25T10:18:50.565Z,83.67
2019-03-25T10:19:50.560Z,78.60
2019-03-25T10:20:50.541Z,79.18
2019-03-25T10:21:50.555Z,76.40
2019-03-25T10:22:50.519Z,71.63
2019-03-25T10:23:50.568Z,71.70
2019-03-25T10:24:50.499Z,72.28
2019-03-25T10:25:50.482Z,72.00
2019-03-25T10:26:50.492Z,70.81
2019-03-25T10:27:50.462Z,72.82
2019-03-25T10:28:50.449Z,71.97
2019-03-25T10:29:50.437Z,72.45
2019-03-25T10:30:50.424Z,71.49
2019-03-25T10:31:50.437Z,74.36
2019-03-25T10:32:50.403Z,76.24
2019-03-25T10:33:50.388Z,74.46
2019-03-25T10:34:50.379Z,77.75
2019-03-25T10:35:50.368Z,76.82
2019-03-25T10:36:50.358Z,73.71
2019-03-25T10:37:50.364Z,72.92
2019-03-25T10:38:50.333Z,75.38
2019-03-25T10:39:50.323Z,76.90
2019-03-25T10:40:50.312Z,76.42
2019-03-25T10:41:50.300Z,77.14
2019-03-25T10:42:50.308Z,78.30
2019-03-25T10:43:50.279Z,77.62
2019-03-25T10:44:50.263Z,77.58
2019-03-25T10:45:50.264Z,77.79
2019-03-25T10:46:50.242Z,77.68
2019-03-25T10:47:50.251Z,76.31
2019-03-25T10:48:50.217Z,73.85
2019-03-25T10:49:50.207Z,71.01
2019-03-25T10:50:50.197Z,71.87
2019-03-25T10:51:50.186Z,69.38
2019-03-25T10:52:50.193Z,70.31
2019-03-25T10:53:50.159Z,62.96
2019-03-25T10:54:50.307Z,61.44
2019-03-25T10:55:50.136Z,62.17
2019-03-25T10:56:50.128Z,58.94
2019-03-25T10:57:50.151Z,55.83
2019-03-25T10:58:57.797Z,56.71
2019-03-25T10:59:51.090Z,57.54
2019-03-25T11:00:50.079Z,55.34
2019-03-25T11:01:50.068Z,51.86
2019-03-25T11:02:50.056Z,50.32
2019-03-25T11:03:50.062Z,48.21
2019-03-25T11:04:50.031Z,45.98
2019-03-25T11:05:50.020Z,48.61
2019-03-25T11:06:50.013Z,46.95
2019-03-25T11:07:50.001Z,45.93
2019-03-25T11:08:50.006Z,45.36
2019-03-25T11:09:49.975Z,46.75
2019-03-25T11:10:49.968Z,49.54
2019-03-25T11:11:49.952Z,49.33
2019-03-25T11:12:49.943Z,52.23
2019-03-25T11:13:49.951Z,52.66
2019-03-25T11:14:49.920Z,51.50
2019-03-25T11:15:49.906Z,51.98
2019-03-25T11:16:49.895Z,53.78
2019-03-25T11:17:49.883Z,56.14
2019-03-25T11:18:49.893Z,57.01
2019-03-25T11:19:49.859Z,56.58
2019-03-25T11:20:49.854Z,58.60
2019-03-25T11:21:49.838Z,60.72
2019-03-25T11:22:49.829Z,62.83
2019-03-25T11:23:49.815Z,63.78
2019-03-25T11:24:49.820Z,63.40
2019-03-25T11:25:49.789Z,63.60
2019-03-25T11:26:49.779Z,65.78
2019-03-25T11:27:54.410Z,65.84
2019-03-25T11:28:50.754Z,71.55
2019-03-25T11:29:49.763Z,74.36
2019-03-25T11:30:49.732Z,76.00
2019-03-25T11:31:49.720Z,77.44
2019-03-25T11:32:49.713Z,76.35
2019-03-25T11:33:49.700Z,77.17
2019-03-25T11:34:49.708Z,77.13
2019-03-25T11:35:49.677Z,75.14
2019-03-25T11:36:49.663Z,71.77
2019-03-25T11:37:49.650Z,72.38
2019-03-25T11:38:49.640Z,73.71
2019-03-25T11:39:49.628Z,70.82
2019-03-25T11:40:49.640Z,68.57
2019-03-25T11:41:49.607Z,68.37
2019-03-25T11:42:49.600Z,66.04
2019-03-25T11:43:49.581Z,62.36
2019-03-25T11:44:49.571Z,63.01
2019-03-25T11:45:49.582Z,58.61
2019-03-25T11:46:49.548Z,57.14
2019-03-25T11:47:49.537Z,56.23
2019-03-25T11:48:49.523Z,56.82
2019-03-25T11:49:49.513Z,56.84
2019-03-25T11:50:49.518Z,57.81
2019-03-25T11:51:49.489Z,58.04
2019-03-25T11:52:49.480Z,57.97
2019-03-25T11:53:49.468Z,59.03
2019-03-25T11:54:49.455Z,60.95
2019-03-25T11:55:49.464Z,59.25
2019-03-25T11:56:49.433Z,61.44
2019-03-25T11:57:49.418Z,63.31
2019-03-25T11:58:49.409Z,61.53
2019-03-25T11:59:49.398Z,64.59
2019-03-25T12:00:49.437Z,63.90
2019-03-25T12:01:49.383Z,64.55
2019-03-25T12:02:49.364Z,62.92
2019-03-25T12:03:49.353Z,63.25
2019-03-25T12:04:49.342Z,60.80
2019-03-25T12:05:49.332Z,61.00
2019-03-25T12:06:49.338Z,59.28
2019-03-25T12:07:49.323Z,58.84
2019-03-25T12:08:49.299Z,57.37
2019-03-25T12:09:49.287Z,56.19
2019-03-25T12:10:49.270Z,54.46
2019-03-25T12:11:49.275Z,55.73
2019-03-25T12:12:49.248Z,57.79
2019-03-25T12:13:49.237Z,56.90
2019-03-25T12:14:49.223Z,53.34
2019-03-25T12:15:49.212Z,56.95
2019-03-25T12:16:49.233Z,57.77
2019-03-25T12:17:49.189Z,56.98
2019-03-25T12:18:49.178Z,55.73
2019-03-25T12:19:49.170Z,55.53
2019-03-25T12:20:49.155Z,55.60
2019-03-25T12:21:49.141Z,55.15
2019-03-25T12:22:49.179Z,55.81
2019-03-25T12:23:49.120Z,56.02
2019-03-25T12:24:49.115Z,57.73
2019-03-25T12:25:49.096Z,60.01
2019-03-25T12:26:49.086Z,60.03
2019-03-25T12:27:49.101Z,61.83
2019-03-25T12:28:49.062Z,66.34
2019-03-25T12:29:49.056Z,69.00
2019-03-25T12:30:49.043Z,66.58
2019-03-25T12:31:49.029Z,66.92
2019-03-25T12:32:49.037Z,67.02
2019-03-25T12:33:49.007Z,61.40
2019-03-25T12:34:48.993Z,58.03
2019-03-25T12:35:48.986Z,56.47
2019-03-25T12:36:48.970Z,52.23
2019-03-25T12:37:48.979Z,50.89
2019-03-25T12:38:48.952Z,52.58
2019-03-25T12:39:48.936Z,51.90
2019-03-25T12:40:48.928Z,49.83
2019-03-25T12:41:48.918Z,49.50
2019-03-25T12:42:48.924Z,49.25
2019-03-25T12:43:48.899Z,50.21
2019-03-25T12:44:48.879Z,46.15
2019-03-25T12:45:48.863Z,47.89
2019-03-25T12:46:48.856Z,48.95
2019-03-25T12:47:48.843Z,46.88
2019-03-25T12:48:48.856Z,46.14
2019-03-25T12:49:48.821Z,47.41
2019-03-25T12:50:48.814Z,45.26
2019-03-25T12:51:48.797Z,45.42
2019-03-25T12:52:48.786Z,43.71